Dernier relevé : 2026-09-02 13:00:51
37.50°
Temperature
6.59%
Hygrométrie sol
35.00%
Hygrométrie Air
98.21%
Lumière ambiante
Evolution
Dernières données
| Date/Heure | Temperature | Air Humidity | Soil Humidity | Pump | Light | Ambiant Light | Tank | State |
|---|---|---|---|---|---|---|---|---|
| 2026-09-02 13:00:51 | 37.5 | 35 | 505 | 0 | 998 | 990 | 0 | Default |
| 2026-09-02 12:00:48 | 33.3 | 42 | 505 | 0 | 996 | 988 | 0 | Default |
| 2026-09-02 11:00:47 | 31.5 | 52 | 503 | 0 | 996 | 989 | 0 | Default |
| 2026-09-02 10:00:45 | 28.6 | 58 | 501 | 0 | 988 | 986 | 0 | Default |
| 2026-09-02 09:00:44 | 26.1 | 63 | 498 | 0 | 981 | 984 | 0 | Default |
| 2026-09-02 08:00:41 | 24.8 | 60 | 499 | 0 | 654 | 981 | 0 | Default |
| 2026-09-02 07:00:39 | 23.2 | 67 | 498 | 0 | 505 | 978 | 0 | Default |
| 2026-09-02 06:00:37 | 21.5 | 69 | 497 | 0 | 293 | 962 | 0 | Default |
| 2026-09-02 05:00:35 | 20.8 | 69 | 500 | 0 | 23 | 70 | 0 | Default |
| 2026-09-02 04:00:33 | 20.9 | 65 | 501 | 0 | 2 | 4 | 0 | Default |
| 2026-09-02 03:00:31 | 21.3 | 61 | 502 | 0 | 2 | 4 | 0 | Default |
| 2026-09-02 02:00:29 | 21.7 | 60 | 501 | 0 | 2 | 5 | 0 | Default |
| 2026-09-02 01:00:27 | 22.2 | 61 | 502 | 0 | 2 | 5 | 0 | Default |
| 2026-09-02 00:00:25 | 23.1 | 58 | 501 | 0 | 2 | 5 | 0 | Default |
| 2026-09-01 23:00:23 | 23.3 | 60 | 502 | 0 | 2 | 4 | 0 | Default |
| 2026-09-01 22:00:19 | 24 | 58 | 504 | 0 | 4 | 5 | 0 | Default |
| 2026-09-01 21:01:06 | 25 | 55 | 504 | 0 | 2 | 5 | 0 | Default |
| 2026-09-01 20:01:03 | 25.8 | 52 | 504 | 0 | 2 | 5 | 0 | Default |
| 2026-09-01 19:01:01 | 26.2 | 53 | 506 | 0 | 2 | 4 | 0 | Default |
| 2026-09-01 18:01:00 | 28.7 | 46 | 505 | 0 | 93 | 288 | 0 | Default |